createdAt,value
2018-08-03T00:00:01.003Z,3.70
2018-08-03T00:02:28.951Z,3.77
2018-08-03T00:04:56.824Z,3.97
2018-08-03T00:07:24.699Z,3.93
2018-08-03T00:09:52.717Z,4.10
2018-08-03T00:12:20.595Z,3.90
2018-08-03T00:14:48.577Z,3.83
2018-08-03T00:17:16.734Z,3.93
2018-08-03T00:19:44.661Z,4.47
2018-08-03T00:22:12.529Z,3.77
2018-08-03T00:24:40.415Z,3.83
2018-08-03T00:27:08.330Z,3.37
2018-08-03T00:29:36.937Z,3.90
2018-08-03T00:32:04.859Z,3.90
2018-08-03T00:34:32.741Z,3.87
2018-08-03T00:37:00.668Z,3.77
2018-08-03T00:39:28.567Z,4.17
2018-08-03T00:41:56.453Z,3.73
2018-08-03T00:44:24.346Z,4.30
2018-08-03T00:46:52.347Z,4.20
2018-08-03T00:49:20.246Z,3.70
2018-08-03T00:51:48.141Z,4.07
2018-08-03T00:54:16.068Z,4.00
2018-08-03T00:56:43.975Z,3.93
2018-08-03T01:01:57.912Z,4.10
2018-08-03T01:04:25.831Z,3.50
2018-08-03T01:06:53.754Z,4.43
2018-08-03T01:09:21.632Z,4.60
2018-08-03T01:11:49.579Z,3.97
2018-08-03T01:14:17.459Z,3.80
2018-08-03T01:16:45.415Z,4.10
2018-08-03T01:19:14.384Z,4.57
2018-08-03T01:21:43.420Z,4.07
2018-08-03T01:24:11.360Z,4.33
2018-08-03T01:26:39.339Z,3.90
2018-08-03T01:29:07.500Z,4.17
2018-08-03T01:31:35.847Z,4.37
2018-08-03T01:34:03.755Z,4.17
2018-08-03T01:36:31.670Z,4.50
2018-08-03T01:38:59.573Z,3.90
2018-08-03T01:41:27.447Z,4.17
2018-08-03T01:43:55.339Z,3.97
2018-08-03T01:46:23.209Z,4.30
2018-08-03T01:48:51.080Z,4.23
2018-08-03T01:51:19.132Z,4.20
2018-08-03T01:53:47.004Z,4.00
2018-08-03T01:56:14.880Z,4.10
2018-08-03T01:58:42.851Z,4.03
2018-08-03T02:01:10.964Z,3.97
2018-08-03T02:03:38.876Z,3.83
2018-08-03T02:06:06.879Z,4.07
2018-08-03T02:08:34.796Z,4.07
2018-08-03T02:11:02.780Z,3.70
2018-08-03T02:13:30.735Z,3.97
2018-08-03T02:15:58.635Z,4.13
2018-08-03T02:18:26.675Z,4.60
2018-08-03T02:20:54.671Z,3.97
2018-08-03T02:23:22.543Z,4.30
2018-08-03T02:25:50.462Z,4.40
2018-08-03T02:28:18.333Z,4.63
2018-08-03T02:30:46.230Z,4.37
2018-08-03T02:33:14.113Z,4.37
2018-08-03T02:35:42.083Z,4.60
2018-08-03T02:38:10.365Z,4.13
2018-08-03T02:40:38.264Z,4.70
2018-08-03T02:43:06.168Z,4.50
2018-08-03T02:45:34.051Z,4.80
2018-08-03T02:48:01.944Z,4.07
2018-08-03T02:50:30.148Z,4.80
2018-08-03T02:52:58.029Z,4.27
2018-08-03T02:55:26.019Z,4.77
2018-08-03T02:57:53.920Z,4.47
2018-08-03T03:00:21.863Z,4.60
2018-08-03T03:02:49.739Z,4.67
2018-08-03T03:05:17.644Z,4.47
2018-08-03T03:07:45.820Z,5.70
2018-08-03T03:10:13.712Z,4.80
2018-08-03T03:12:41.585Z,4.37
2018-08-03T03:15:09.812Z,4.43
2018-08-03T03:17:37.704Z,5.00
2018-08-03T03:20:05.596Z,4.77
2018-08-03T03:22:33.512Z,4.47
2018-08-03T03:25:01.384Z,5.07
2018-08-03T03:27:29.267Z,4.90
2018-08-03T03:29:59.235Z,4.90
2018-08-03T03:32:27.123Z,4.97
2018-08-03T03:34:55.247Z,5.07
2018-08-03T03:37:23.127Z,4.93
2018-08-03T03:39:51.100Z,4.57
2018-08-03T03:42:18.999Z,5.00
2018-08-03T03:44:46.943Z,5.27
2018-08-03T03:47:14.820Z,5.83
2018-08-03T03:49:42.703Z,6.00
2018-08-03T03:52:10.601Z,5.43
2018-08-03T03:54:38.501Z,6.43
2018-08-03T03:57:06.416Z,5.33
2018-08-03T03:59:34.305Z,5.90
2018-08-03T04:02:02.188Z,6.30
2018-08-03T04:04:31.120Z,7.23
2018-08-03T04:06:59.279Z,6.30
2018-08-03T04:09:27.155Z,6.40
2018-08-03T04:11:55.099Z,5.10
2018-08-03T04:14:23.032Z,5.47
2018-08-03T04:16:50.908Z,5.73
2018-08-03T04:19:18.932Z,6.27
2018-08-03T04:21:46.803Z,5.93
2018-08-03T04:24:14.696Z,6.00
2018-08-03T04:26:42.588Z,5.57
2018-08-03T04:29:10.468Z,5.50
2018-08-03T04:31:38.367Z,6.10
2018-08-03T04:34:06.235Z,5.43
2018-08-03T04:36:34.128Z,5.97
2018-08-03T04:39:03.735Z,6.53
2018-08-03T04:41:31.536Z,5.17
2018-08-03T04:43:59.611Z,5.30
2018-08-03T04:46:27.488Z,6.23
2018-08-03T04:48:55.379Z,6.17
2018-08-03T04:51:23.802Z,5.30
2018-08-03T04:53:51.752Z,6.03
2018-08-03T04:56:26.021Z,7.10
2018-08-03T04:58:54.195Z,6.50
2018-08-03T05:01:22.075Z,6.83
2018-08-03T05:03:49.952Z,6.97
2018-08-03T05:06:17.887Z,7.67
2018-08-03T05:08:45.856Z,7.40
2018-08-03T05:11:13.730Z,6.97
2018-08-03T05:13:41.628Z,6.83
2018-08-03T05:16:09.532Z,5.47
2018-08-03T05:18:37.437Z,6.57
2018-08-03T05:21:05.352Z,5.43
2018-08-03T05:23:33.267Z,6.13
2018-08-03T05:26:01.273Z,6.07
2018-08-03T05:28:29.156Z,6.40
2018-08-03T05:30:57.070Z,5.57
2018-08-03T05:33:24.951Z,6.20
2018-08-03T05:35:53.314Z,5.00
2018-08-03T05:38:21.172Z,6.20
2018-08-03T05:40:49.071Z,5.73
2018-08-03T05:43:17.019Z,6.13
2018-08-03T05:45:44.900Z,5.73
2018-08-03T05:48:12.808Z,5.97
2018-08-03T05:50:40.699Z,6.13
2018-08-03T05:53:08.833Z,6.10
2018-08-03T05:55:36.724Z,5.47
2018-08-03T05:58:04.770Z,6.13
2018-08-03T06:00:32.651Z,5.57
2018-08-03T06:03:00.547Z,6.70
2018-08-03T06:05:28.440Z,6.17
2018-08-03T06:07:56.402Z,5.90
2018-08-03T06:10:24.593Z,6.30
2018-08-03T06:12:52.575Z,5.90
2018-08-03T06:15:20.472Z,7.00
2018-08-03T06:17:48.413Z,6.93
2018-08-03T06:20:16.313Z,6.50
2018-08-03T06:22:44.215Z,5.77
2018-08-03T06:25:12.137Z,6.10
2018-08-03T06:27:40.032Z,6.43
2018-08-03T06:30:09.315Z,5.40
2018-08-03T06:32:37.859Z,7.83
2018-08-03T06:35:05.827Z,5.70
2018-08-03T06:37:33.720Z,5.97
2018-08-03T06:40:01.660Z,5.07
2018-08-03T06:42:29.906Z,5.40
2018-08-03T06:44:57.800Z,5.20
2018-08-03T06:47:25.796Z,6.00
2018-08-03T06:49:53.732Z,5.17
2018-08-03T06:52:21.699Z,4.97
2018-08-03T06:54:49.672Z,5.23
2018-08-03T06:57:17.593Z,5.57
2018-08-03T06:59:45.508Z,5.10
2018-08-03T07:02:13.756Z,5.07
2018-08-03T07:04:41.636Z,5.00
2018-08-03T07:07:09.527Z,5.07
2018-08-03T07:09:37.692Z,5.40
2018-08-03T07:12:05.599Z,4.90
2018-08-03T07:14:33.518Z,4.90
2018-08-03T07:17:01.392Z,5.10
2018-08-03T07:19:29.288Z,5.00
2018-08-03T07:21:57.181Z,4.93
2018-08-03T07:24:25.131Z,14.73
2018-08-03T07:26:53.032Z,5.37
2018-08-03T07:29:21.041Z,5.20
2018-08-03T07:31:48.952Z,4.30
2018-08-03T07:34:16.867Z,4.73
2018-08-03T07:36:44.763Z,4.50
2018-08-03T07:39:12.620Z,5.20
2018-08-03T07:41:40.588Z,4.90
2018-08-03T07:44:08.456Z,5.03
2018-08-03T07:46:36.359Z,4.63
2018-08-03T07:49:04.283Z,4.50
2018-08-03T07:51:32.725Z,4.73
2018-08-03T07:54:00.676Z,4.43
2018-08-03T07:56:28.839Z,5.03
2018-08-03T07:58:56.760Z,4.47
2018-08-03T08:01:24.643Z,4.93
2018-08-03T08:03:58.956Z,4.33
2018-08-03T08:06:26.872Z,5.07
2018-08-03T08:08:54.772Z,4.43
2018-08-03T08:11:22.648Z,4.67
2018-08-03T08:13:51.075Z,4.37
2018-08-03T08:16:18.982Z,4.90
2018-08-03T08:18:46.864Z,4.63
2018-08-03T08:21:14.764Z,4.60
2018-08-03T08:23:42.682Z,4.40
2018-08-03T08:26:10.623Z,4.03
2018-08-03T08:28:38.456Z,4.40
2018-08-03T08:31:06.395Z,4.20
2018-08-03T08:33:34.309Z,4.10
2018-08-03T08:36:02.191Z,4.87
2018-08-03T08:38:30.109Z,4.93
2018-08-03T08:40:58.003Z,4.40
2018-08-03T08:43:25.957Z,4.40
2018-08-03T08:45:53.851Z,4.63
2018-08-03T08:48:21.736Z,4.10
2018-08-03T08:50:53.532Z,4.60
2018-08-03T08:53:21.554Z,4.80
2018-08-03T08:55:49.427Z,4.83
2018-08-03T08:58:17.306Z,5.50
2018-08-03T09:00:45.195Z,4.57
2018-08-03T09:03:13.065Z,5.37
2018-08-03T09:05:40.960Z,4.57
2018-08-03T09:08:08.839Z,4.93
2018-08-03T09:10:37.007Z,5.10
2018-08-03T09:13:04.933Z,4.77
2018-08-03T09:15:32.777Z,4.33
2018-08-03T09:18:00.715Z,4.43
2018-08-03T09:20:28.639Z,4.60
2018-08-03T09:22:56.519Z,5.23
2018-08-03T09:25:24.439Z,4.67
2018-08-03T09:27:52.344Z,4.73
2018-08-03T09:30:20.232Z,4.47
2018-08-03T09:32:48.247Z,4.93
2018-08-03T09:35:16.169Z,5.07
2018-08-03T09:37:44.068Z,5.03
2018-08-03T09:40:11.956Z,5.20
2018-08-03T09:42:40.137Z,4.77
2018-08-03T09:45:08.096Z,5.40
2018-08-03T09:47:36.449Z,5.57
2018-08-03T09:52:38.729Z,4.60
2018-08-03T09:55:06.921Z,4.77
2018-08-03T09:57:34.777Z,4.70
2018-08-03T10:00:02.703Z,4.40
2018-08-03T10:02:30.712Z,4.93
2018-08-03T10:04:58.645Z,5.73
2018-08-03T10:07:26.644Z,4.43
2018-08-03T10:09:54.503Z,4.50
2018-08-03T10:12:22.451Z,4.87
2018-08-03T10:14:50.368Z,4.67
2018-08-03T10:17:18.385Z,6.20
2018-08-03T10:19:46.572Z,4.70
2018-08-03T10:22:14.472Z,4.03
2018-08-03T10:24:42.431Z,4.07
2018-08-03T10:27:10.330Z,4.83
2018-08-03T10:29:38.293Z,4.00
2018-08-03T10:32:06.159Z,4.00
2018-08-03T10:34:34.093Z,3.40
2018-08-03T10:37:01.989Z,3.90
2018-08-03T10:39:29.904Z,3.70
2018-08-03T10:41:57.824Z,3.80
2018-08-03T10:44:25.751Z,3.60
2018-08-03T10:46:53.741Z,3.63
2018-08-03T10:49:21.640Z,3.57
2018-08-03T10:51:49.608Z,3.90
2018-08-03T10:54:17.579Z,3.00
2018-08-03T10:56:45.528Z,3.53
2018-08-03T10:59:13.419Z,3.17
2018-08-03T11:01:41.421Z,3.17
2018-08-03T11:04:09.258Z,3.60
2018-08-03T11:06:37.305Z,3.70
2018-08-03T11:09:06.403Z,4.00
2018-08-03T11:11:34.291Z,3.53
2018-08-03T11:14:02.292Z,3.53
2018-08-03T11:16:30.174Z,3.87
2018-08-03T11:18:58.108Z,3.70
2018-08-03T11:21:26.006Z,3.63
2018-08-03T11:23:53.932Z,3.50
2018-08-03T11:26:21.912Z,3.80
2018-08-03T11:28:50.073Z,3.07
2018-08-03T11:31:17.988Z,3.00
2018-08-03T11:33:46.172Z,3.37
2018-08-03T11:36:14.132Z,3.47
2018-08-03T11:38:42.051Z,3.47
2018-08-03T11:41:10.105Z,2.80
2018-08-03T11:43:38.100Z,3.13
2018-08-03T11:46:06.158Z,3.80
2018-08-03T11:48:34.092Z,3.57
2018-08-03T11:51:02.008Z,3.33
2018-08-03T11:53:30.024Z,3.30
2018-08-03T11:55:57.916Z,3.60
2018-08-03T11:58:26.145Z,3.57
2018-08-03T12:00:54.094Z,3.33
2018-08-03T12:03:21.956Z,3.57
2018-08-03T12:05:49.862Z,3.33
2018-08-03T12:08:17.916Z,4.00
2018-08-03T12:10:45.845Z,3.47
2018-08-03T12:13:14.093Z,3.10
2018-08-03T12:15:42.240Z,3.23
2018-08-03T12:18:13.305Z,3.23
2018-08-03T12:20:41.640Z,3.47
2018-08-03T12:23:09.853Z,3.70
2018-08-03T12:25:38.006Z,3.53
2018-08-03T12:28:06.212Z,3.40
2018-08-03T12:30:34.439Z,3.07
2018-08-03T12:33:02.723Z,3.40
2018-08-03T12:35:30.896Z,3.50
2018-08-03T12:37:59.393Z,3.50
2018-08-03T12:40:27.377Z,3.37
2018-08-03T12:42:55.504Z,3.57
2018-08-03T12:45:33.832Z,4.00
2018-08-03T12:47:51.920Z,5.60
2018-08-03T12:50:20.058Z,4.03
2018-08-03T12:52:48.481Z,3.93
2018-08-03T12:55:16.635Z,3.80
2018-08-03T12:57:44.834Z,3.90
2018-08-03T13:00:12.762Z,3.50
2018-08-03T13:02:41.027Z,3.30
2018-08-03T13:05:09.085Z,3.80
2018-08-03T13:07:37.354Z,3.67
2018-08-03T13:10:05.399Z,3.17
2018-08-03T13:12:33.561Z,3.70
2018-08-03T13:15:01.723Z,5.73
2018-08-03T13:17:29.857Z,3.63
2018-08-03T13:19:58.012Z,2.93
2018-08-03T13:22:26.201Z,2.90
2018-08-03T13:24:54.425Z,3.40
2018-08-03T13:27:22.631Z,3.00
2018-08-03T13:29:50.752Z,3.47
2018-08-03T13:32:18.914Z,3.47
2018-08-03T13:34:47.056Z,3.53
2018-08-03T13:37:15.321Z,5.70
2018-08-03T13:39:43.473Z,3.33
2018-08-03T13:42:11.670Z,3.17
2018-08-03T13:44:39.883Z,3.00
2018-08-03T13:47:07.972Z,2.80
2018-08-03T13:49:36.387Z,3.50
2018-08-03T13:52:04.657Z,3.53
2018-08-03T13:54:32.811Z,3.30
2018-08-03T13:57:01.002Z,3.43
2018-08-03T13:59:29.183Z,3.47
2018-08-03T14:02:08.579Z,3.93
2018-08-03T14:04:36.714Z,3.60
2018-08-03T14:07:04.961Z,3.53
2018-08-03T14:09:33.080Z,3.47
2018-08-03T14:12:01.257Z,3.37
2018-08-03T14:14:29.429Z,3.73
2018-08-03T14:16:57.568Z,3.00
2018-08-03T14:19:25.848Z,3.10
2018-08-03T14:21:54.036Z,3.30
2018-08-03T14:24:22.207Z,3.00
2018-08-03T14:26:50.540Z,2.80
2018-08-03T14:29:18.776Z,3.07
2018-08-03T14:31:46.930Z,3.20
2018-08-03T14:34:15.204Z,3.13
2018-08-03T14:36:43.561Z,3.00
2018-08-03T14:39:11.966Z,2.87
2018-08-03T14:41:40.172Z,2.83
2018-08-03T14:44:08.892Z,9.80
2018-08-03T14:46:38.104Z,3.93
2018-08-03T14:49:06.461Z,3.00
2018-08-03T14:51:34.658Z,2.60
2018-08-03T14:54:02.836Z,3.10
2018-08-03T14:56:30.989Z,3.00
2018-08-03T14:58:59.292Z,2.80
2018-08-03T15:01:27.533Z,3.10
2018-08-03T15:03:55.752Z,3.67
2018-08-03T15:06:23.950Z,2.40
2018-08-03T15:08:52.141Z,2.50
2018-08-03T15:11:20.296Z,3.10
2018-08-03T15:13:48.537Z,4.63
2018-08-03T15:16:16.689Z,2.70
2018-08-03T15:18:44.890Z,2.63
2018-08-03T15:21:13.084Z,2.67
2018-08-03T15:23:41.229Z,2.37
2018-08-03T15:26:09.365Z,2.80
2018-08-03T15:28:38.267Z,2.60
2018-08-03T15:31:06.395Z,2.70
2018-08-03T15:33:34.540Z,3.03
2018-08-03T15:36:02.721Z,3.20
2018-08-03T15:38:30.849Z,5.03
2018-08-03T15:40:59.110Z,3.10
2018-08-03T15:43:27.265Z,2.97
2018-08-03T15:45:55.446Z,2.73
2018-08-03T15:48:23.785Z,2.50
2018-08-03T15:50:51.920Z,2.60
2018-08-03T15:53:20.147Z,2.70
2018-08-03T15:55:48.657Z,2.40
2018-08-03T15:58:16.794Z,2.90
2018-08-03T16:00:44.979Z,2.67
2018-08-03T16:03:13.131Z,2.47
2018-08-03T16:05:41.310Z,2.70
2018-08-03T16:08:09.462Z,2.43
2018-08-03T16:10:37.601Z,2.47
2018-08-03T16:13:06.057Z,2.80
2018-08-03T16:15:34.213Z,2.63
2018-08-03T16:18:02.700Z,2.77
2018-08-03T16:20:31.433Z,2.90
2018-08-03T16:22:59.570Z,2.53
2018-08-03T16:25:27.840Z,2.33
2018-08-03T16:27:56.067Z,2.80
2018-08-03T16:30:24.777Z,2.47
2018-08-03T16:32:52.930Z,6.87
2018-08-03T16:35:21.144Z,2.60
2018-08-03T16:37:49.274Z,2.80
2018-08-03T16:40:17.502Z,2.40
2018-08-03T16:42:45.613Z,2.77
2018-08-03T16:45:13.745Z,2.50
2018-08-03T16:47:41.879Z,2.60
2018-08-03T16:50:10.086Z,2.50
2018-08-03T16:52:39.219Z,2.70
2018-08-03T16:55:07.509Z,2.60
2018-08-03T16:57:35.627Z,2.60
2018-08-03T17:00:04.572Z,2.50
2018-08-03T17:02:33.305Z,2.40
2018-08-03T17:05:01.571Z,2.70
2018-08-03T17:07:29.733Z,3.50
2018-08-03T17:09:57.978Z,4.50
2018-08-03T17:12:26.116Z,2.97
2018-08-03T17:14:54.344Z,2.23
2018-08-03T17:17:22.712Z,3.20
2018-08-03T17:19:50.846Z,2.50
2018-08-03T17:22:19.000Z,3.10
2018-08-03T17:24:47.265Z,3.27
2018-08-03T17:27:15.708Z,2.70
2018-08-03T17:29:43.850Z,2.67
2018-08-03T17:32:12.189Z,3.40
2018-08-03T17:34:41.242Z,3.63
2018-08-03T17:37:10.098Z,3.33
2018-08-03T17:39:38.227Z,2.73
2018-08-03T17:42:06.738Z,2.40
2018-08-03T17:44:35.197Z,3.97
2018-08-03T17:47:03.578Z,5.47
2018-08-03T17:49:32.270Z,2.90
2018-08-03T17:52:01.265Z,3.07
2018-08-03T17:54:30.271Z,2.63
2018-08-03T17:56:58.492Z,2.60
2018-08-03T17:59:26.787Z,2.30
2018-08-03T18:01:54.958Z,2.83
2018-08-03T18:04:24.147Z,2.90
2018-08-03T18:06:53.699Z,3.00
2018-08-03T18:09:23.327Z,2.63
2018-08-03T18:11:52.735Z,3.00
2018-08-03T18:14:20.894Z,2.50
2018-08-03T18:16:49.946Z,2.67
2018-08-03T18:19:18.581Z,2.70
2018-08-03T18:21:48.007Z,2.50
2018-08-03T18:24:16.710Z,2.67
2018-08-03T18:26:45.745Z,2.40
2018-08-03T18:29:15.226Z,2.73
2018-08-03T18:31:43.476Z,2.60
2018-08-03T18:34:12.222Z,2.80
2018-08-03T18:36:41.090Z,2.60
2018-08-03T18:39:11.969Z,2.23
2018-08-03T18:41:41.557Z,2.57
2018-08-03T18:44:11.265Z,2.80
2018-08-03T18:46:40.969Z,2.60
2018-08-03T18:49:10.521Z,2.83
2018-08-03T18:51:40.234Z,2.83
2018-08-03T18:54:09.753Z,2.60
2018-08-03T18:56:39.285Z,2.53
2018-08-03T18:59:08.863Z,2.57
2018-08-03T19:01:39.323Z,2.17
2018-08-03T19:04:09.185Z,3.10
2018-08-03T19:06:38.917Z,2.60
2018-08-03T19:09:08.847Z,2.83
2018-08-03T19:11:39.444Z,3.13
2018-08-03T19:14:09.016Z,3.73
2018-08-03T19:16:38.656Z,3.20
2018-08-03T19:19:08.179Z,3.33
2018-08-03T19:21:37.897Z,2.80
2018-08-03T19:24:07.421Z,3.03
2018-08-03T19:26:37.146Z,3.20
2018-08-03T19:29:06.665Z,3.27
2018-08-03T19:31:36.309Z,3.00
2018-08-03T19:34:05.990Z,3.40
2018-08-03T19:36:35.681Z,3.20
2018-08-03T19:39:07.201Z,3.13
2018-08-03T19:41:36.942Z,3.10
2018-08-03T19:44:06.583Z,3.20
2018-08-03T19:46:36.150Z,3.57
2018-08-03T19:49:05.815Z,3.07
2018-08-03T19:51:35.821Z,2.93
2018-08-03T19:54:05.687Z,2.97
2018-08-03T19:56:35.349Z,3.33
2018-08-03T19:59:05.154Z,3.13
2018-08-03T20:01:34.766Z,3.03
2018-08-03T20:04:04.860Z,3.00
2018-08-03T20:06:34.550Z,2.93
2018-08-03T20:09:04.502Z,3.00
2018-08-03T20:11:34.353Z,3.37
2018-08-03T20:14:04.079Z,3.07
2018-08-03T20:16:34.565Z,2.73
2018-08-03T20:19:04.219Z,3.30
2018-08-03T20:21:33.808Z,5.30
2018-08-03T20:24:04.251Z,3.80
2018-08-03T20:26:34.564Z,3.53
2018-08-03T20:29:04.241Z,3.00
2018-08-03T20:31:33.890Z,3.57
2018-08-03T20:34:03.594Z,3.90
2018-08-03T20:36:33.559Z,3.00
2018-08-03T20:39:03.563Z,2.97
2018-08-03T20:41:33.375Z,3.37
2018-08-03T20:44:03.246Z,3.40
2018-08-03T20:46:32.831Z,3.00
2018-08-03T20:49:02.796Z,2.93
2018-08-03T20:51:32.536Z,3.03
2018-08-03T20:54:03.275Z,3.00
2018-08-03T20:56:33.801Z,3.30
2018-08-03T20:59:03.813Z,3.17
2018-08-03T21:01:33.438Z,3.20
2018-08-03T21:04:03.181Z,3.10
2018-08-03T21:06:32.825Z,3.40
2018-08-03T21:09:02.397Z,3.40
2018-08-03T21:11:32.290Z,4.30
2018-08-03T21:14:01.910Z,3.53
2018-08-03T21:16:32.582Z,2.90
2018-08-03T21:19:02.670Z,3.10
2018-08-03T21:21:32.400Z,3.20
2018-08-03T21:24:01.980Z,3.57
2018-08-03T21:26:31.787Z,3.30
2018-08-03T21:29:01.754Z,3.83
2018-08-03T21:31:31.728Z,3.40
2018-08-03T21:34:01.383Z,3.43
2018-08-03T21:36:30.895Z,4.37
2018-08-03T21:39:00.457Z,3.50
2018-08-03T21:41:29.966Z,3.27
2018-08-03T21:43:59.677Z,3.20
2018-08-03T21:46:29.266Z,3.40
2018-08-03T21:48:59.140Z,3.23
2018-08-03T21:51:28.671Z,3.47
2018-08-03T21:53:58.332Z,3.10
2018-08-03T21:56:27.971Z,2.83
2018-08-03T21:58:57.488Z,3.37
2018-08-03T22:01:27.536Z,3.30
2018-08-03T22:03:56.973Z,2.90
2018-08-03T22:06:25.380Z,2.87
2018-08-03T22:08:53.369Z,3.00
2018-08-03T22:11:21.436Z,3.40
2018-08-03T22:13:49.408Z,3.10
2018-08-03T22:16:17.619Z,2.70
2018-08-03T22:18:45.658Z,2.63
2018-08-03T22:21:13.570Z,2.70
2018-08-03T22:23:41.466Z,2.80
2018-08-03T22:26:09.409Z,3.00
2018-08-03T22:28:37.293Z,2.67
2018-08-03T22:31:05.191Z,2.93
2018-08-03T22:33:33.105Z,2.97
2018-08-03T22:36:00.984Z,3.20
2018-08-03T22:38:29.003Z,3.43
2018-08-03T22:40:56.895Z,3.60
2018-08-03T22:43:24.827Z,3.40
2018-08-03T22:45:52.723Z,3.13
2018-08-03T22:48:20.599Z,3.40
2018-08-03T22:50:48.643Z,4.17
2018-08-03T22:53:16.548Z,3.60
2018-08-03T22:55:44.501Z,3.93
2018-08-03T22:58:12.409Z,4.50
2018-08-03T23:00:40.279Z,4.13
2018-08-03T23:03:08.254Z,3.87
2018-08-03T23:05:36.176Z,3.63
2018-08-03T23:08:04.093Z,3.87
2018-08-03T23:10:32.000Z,4.27
2018-08-03T23:12:59.993Z,3.93
2018-08-03T23:15:27.892Z,3.87
2018-08-03T23:17:55.811Z,4.23
2018-08-03T23:20:23.799Z,5.20
2018-08-03T23:22:51.946Z,4.37
2018-08-03T23:25:19.824Z,4.20
2018-08-03T23:27:47.811Z,4.50
2018-08-03T23:30:15.711Z,4.33
2018-08-03T23:32:43.592Z,4.57
2018-08-03T23:35:11.743Z,4.80
2018-08-03T23:37:39.655Z,5.07
2018-08-03T23:40:07.568Z,4.87
2018-08-03T23:42:35.932Z,5.30
2018-08-03T23:45:03.987Z,4.90
2018-08-03T23:47:31.949Z,4.83
2018-08-03T23:49:59.836Z,4.67
2018-08-03T23:52:27.736Z,5.03
2018-08-03T23:54:55.656Z,4.93
2018-08-03T23:57:23.542Z,5.00
2018-08-03T23:59:51.505Z,5.93
